VIS870 YSSY-YMLT
Flight info
| Callsign | VIS870 |
|---|---|
| Flight time | N/A |
| Altitude | 40000 |
| Route | WOL H20 OTKED J22 LT |
| Aircraft | B748/H-SDE3FGHIM1M2RWXY/LB1 |
Departure
| Time | 2026-04-30 09:53 |
|---|---|
| Airport | Sydney Kingsford Smith International Airport (YSSY) |
Arrival
| Time | N/A |
|---|---|
| Airport | Launceston Airport (YMLT) |
| Time | Latitude | Longitude | Altitude | Speed | Heading |
|---|---|---|---|---|---|
| 2026-04-30 09:01 | -33.93832 | 151.16835 | 31 ft | 0 kts | 70° |
| 2026-04-30 09:32 | -33.93835 | 151.16826 | 29 ft | 3 kts | 70° |
| 2026-04-30 09:33 | -33.93841 | 151.16805 | 31 ft | 3 kts | 70° |
| 2026-04-30 09:33 | -33.93848 | 151.16782 | 30 ft | 3 kts | 92° |
| 2026-04-30 09:33 | -33.93843 | 151.16755 | 29 ft | 3 kts | 139° |
| 2026-04-30 09:33 | -33.93831 | 151.16745 | 29 ft | 0 kts | 160° |
| 2026-04-30 09:36 | -33.93835 | 151.16747 | 27 ft | 2 kts | 160° |
| 2026-04-30 09:37 | -33.93853 | 151.16755 | 29 ft | 4 kts | 160° |
| 2026-04-30 09:37 | -33.93884 | 151.16768 | 31 ft | 6 kts | 160° |
| 2026-04-30 09:37 | -33.93927 | 151.16787 | 31 ft | 8 kts | 160° |
| 2026-04-30 09:37 | -33.93983 | 151.16812 | 31 ft | 9 kts | 160° |
| 2026-04-30 09:38 | -33.94050 | 151.16841 | 31 ft | 11 kts | 160° |
| 2026-04-30 09:38 | -33.94069 | 151.16850 | 31 ft | 0 kts | 160° |
| 2026-04-30 09:38 | -33.94042 | 151.16838 | 31 ft | 10 kts | 159° |
| 2026-04-30 09:38 | -33.93945 | 151.16789 | 31 ft | 17 kts | 157° |
| 2026-04-30 09:39 | -33.93904 | 151.16771 | 31 ft | 0 kts | 163° |
| 2026-04-30 09:43 | -33.93905 | 151.16772 | 31 ft | 2 kts | 163° |
| 2026-04-30 09:43 | -33.93954 | 151.16784 | 31 ft | 11 kts | 170° |
| 2026-04-30 09:43 | -33.94055 | 151.16813 | 31 ft | 17 kts | 164° |
| 2026-04-30 09:43 | -33.94112 | 151.16831 | 33 ft | 0 kts | 167° |
| 2026-04-30 09:45 | -33.94114 | 151.16832 | 33 ft | 0 kts | 165° |
| 2026-04-30 09:46 | -33.94115 | 151.16832 | 33 ft | 1 kts | 165° |
| 2026-04-30 09:46 | -33.94145 | 151.16869 | 32 ft | 8 kts | 107° |
| 2026-04-30 09:46 | -33.94130 | 151.16943 | 32 ft | 12 kts | 70° |
| 2026-04-30 09:46 | -33.94102 | 151.17061 | 31 ft | 19 kts | 73° |
| 2026-04-30 09:47 | -33.94074 | 151.17205 | 32 ft | 11 kts | 96° |
| 2026-04-30 09:47 | -33.94114 | 151.17260 | 32 ft | 14 kts | 159° |
| 2026-04-30 09:47 | -33.94319 | 151.17315 | 34 ft | 40 kts | 170° |
| 2026-04-30 09:47 | -33.94651 | 151.17406 | 36 ft | 55 kts | 167° |
| 2026-04-30 09:48 | -33.95029 | 151.17498 | 30 ft | 54 kts | 168° |
| 2026-04-30 09:48 | -33.95389 | 151.17594 | 30 ft | 51 kts | 168° |
| 2026-04-30 09:48 | -33.95727 | 151.17681 | 35 ft | 48 kts | 165° |
| 2026-04-30 09:48 | -33.96044 | 151.17761 | 34 ft | 40 kts | 168° |
| 2026-04-30 09:49 | -33.96261 | 151.17817 | 32 ft | 11 kts | 168° |
| 2026-04-30 09:49 | -33.96313 | 151.17831 | 32 ft | 16 kts | 166° |
| 2026-04-30 09:49 | -33.96414 | 151.17863 | 34 ft | 11 kts | 156° |
| 2026-04-30 09:49 | -33.96438 | 151.17917 | 34 ft | 6 kts | 90° |
| 2026-04-30 09:50 | -33.96437 | 151.17927 | 34 ft | 0 kts | 83° |
| 2026-04-30 09:51 | -33.96428 | 151.17978 | 34 ft | 13 kts | 77° |
| 2026-04-30 09:52 | -33.96395 | 151.18050 | 34 ft | 6 kts | 23° |
| 2026-04-30 09:52 | -33.96362 | 151.18047 | 34 ft | 6 kts | 349° |
| 2026-04-30 09:52 | -33.96199 | 151.18005 | 30 ft | 72 kts | 347° |
| 2026-04-30 09:52 | -33.95303 | 151.17773 | 54 ft | 184 kts | 348° |
| 2026-04-30 09:53 | -33.93965 | 151.17464 | 919 ft | 194 kts | 353° |
| 2026-04-30 09:53 | -33.92645 | 151.17162 | 2156 ft | 194 kts | 353° |
| 2026-04-30 09:53 | -33.91321 | 151.16837 | 3390 ft | 193 kts | 347° |
| 2026-04-30 09:53 | -33.90150 | 151.16055 | 4609 ft | 199 kts | 323° |
| 2026-04-30 09:54 | -33.89210 | 151.14834 | 5813 ft | 198 kts | 308° |
| 2026-04-30 09:54 | -33.88590 | 151.13416 | 7154 ft | 187 kts | 289° |
| 2026-04-30 09:54 | -33.88213 | 151.11867 | 7964 ft | 208 kts | 286° |
| 2026-04-30 09:54 | -33.87832 | 151.10085 | 8723 ft | 228 kts | 285° |
| 2026-04-30 09:55 | -33.87425 | 151.08175 | 9557 ft | 244 kts | 288° |
| 2026-04-30 09:55 | -33.86927 | 151.06170 | 10478 ft | 255 kts | 289° |
| 2026-04-30 09:55 | -33.86438 | 151.04069 | 11325 ft | 267 kts | 286° |
| 2026-04-30 09:55 | -33.85943 | 151.01826 | 11803 ft | 292 kts | 286° |
| 2026-04-30 09:56 | -33.85415 | 150.99332 | 11581 ft | 328 kts | 284° |
| 2026-04-30 09:56 | -33.84872 | 150.96361 | 8907 ft | 404 kts | 281° |
| 2026-04-30 09:56 | -33.84392 | 150.92709 | 7232 ft | 453 kts | 278° |
| 2026-04-30 09:56 | -33.84000 | 150.89130 | 8177 ft | 414 kts | 275° |
| 2026-04-30 09:57 | -33.83830 | 150.85754 | 8656 ft | 399 kts | 264° |
| 2026-04-30 09:57 | -33.84340 | 150.82561 | 8761 ft | 396 kts | 245° |
| 2026-04-30 09:57 | -33.85663 | 150.79642 | 8692 ft | 397 kts | 230° |
| 2026-04-30 09:57 | -33.87506 | 150.77392 | 9859 ft | 360 kts | 203° |
| 2026-04-30 09:58 | -33.89739 | 150.76538 | 10796 ft | 327 kts | 167° |
| 2026-04-30 09:58 | -33.91889 | 150.77290 | 10470 ft | 330 kts | 129° |
| 2026-04-30 09:58 | -33.93229 | 150.79398 | 10773 ft | 308 kts | 99° |
| 2026-04-30 09:58 | -33.93814 | 150.81813 | 11407 ft | 298 kts | 96° |
| 2026-04-30 09:59 | -33.94846 | 150.86499 | 13596 ft | 288 kts | 108° |
| 2026-04-30 09:59 | -33.96498 | 150.91143 | 14311 ft | 329 kts | 127° |
| 2026-04-30 10:00 | -34.00603 | 150.94036 | 14282 ft | 372 kts | 170° |
| 2026-04-30 10:00 | -34.03231 | 150.94142 | 14301 ft | 383 kts | 182° |
| 2026-04-30 10:01 | -34.08399 | 150.94074 | 16125 ft | 344 kts | 182° |
| 2026-04-30 10:01 | -34.10718 | 150.93758 | 16977 ft | 342 kts | 194° |
| 2026-04-30 10:01 | -34.13020 | 150.92774 | 16904 ft | 361 kts | 202° |
| 2026-04-30 10:02 | -34.17966 | 150.90773 | 16769 ft | 370 kts | 196° |
| 2026-04-30 10:02 | -34.20317 | 150.89986 | 17103 ft | 339 kts | 195° |
| 2026-04-30 10:02 | -34.22552 | 150.89250 | 17449 ft | 328 kts | 195° |
| 2026-04-30 10:02 | -34.24712 | 150.88543 | 17784 ft | 324 kts | 195° |
| 2026-04-30 10:03 | -34.26872 | 150.87831 | 18143 ft | 319 kts | 195° |
| 2026-04-30 10:03 | -34.29000 | 150.87128 | 18519 ft | 315 kts | 195° |
| 2026-04-30 10:03 | -34.31103 | 150.86434 | 18867 ft | 311 kts | 195° |
| 2026-04-30 10:03 | -34.33175 | 150.85749 | 19188 ft | 307 kts | 194° |
| 2026-04-30 10:04 | -34.35220 | 150.85065 | 19514 ft | 303 kts | 195° |
| 2026-04-30 10:04 | -34.37242 | 150.84392 | 19834 ft | 299 kts | 195° |
| 2026-04-30 10:04 | -34.39236 | 150.83724 | 20164 ft | 295 kts | 195° |
| 2026-04-30 10:04 | -34.41195 | 150.83066 | 20600 ft | 285 kts | 194° |
| 2026-04-30 10:05 | -34.43018 | 150.82447 | 21477 ft | 260 kts | 195° |
| 2026-04-30 10:05 | -34.44679 | 150.81882 | 22303 ft | 236 kts | 195° |
| 2026-04-30 10:05 | -34.46166 | 150.81367 | 23053 ft | 216 kts | 195° |
| 2026-04-30 10:05 | -34.47583 | 150.80867 | 23537 ft | 211 kts | 195° |
| 2026-04-30 10:06 | -34.49016 | 150.80366 | 23679 ft | 219 kts | 195° |
| 2026-04-30 10:06 | -34.50504 | 150.79845 | 23893 ft | 227 kts | 195° |
| 2026-04-30 10:06 | -34.52029 | 150.79313 | 24355 ft | 231 kts | 195° |
| 2026-04-30 10:06 | -34.53602 | 150.78768 | 24778 ft | 238 kts | 195° |
| 2026-04-30 10:07 | -34.55211 | 150.78205 | 25285 ft | 243 kts | 195° |
| 2026-04-30 10:07 | -34.56852 | 150.77631 | 25787 ft | 248 kts | 194° |
| 2026-04-30 10:07 | -34.58525 | 150.77050 | 26311 ft | 252 kts | 195° |
| 2026-04-30 10:07 | -34.60229 | 150.76452 | 26844 ft | 257 kts | 195° |
| 2026-04-30 10:08 | -34.61963 | 150.75843 | 27378 ft | 262 kts | 197° |
| 2026-04-30 10:08 | -34.63638 | 150.74984 | 27940 ft | 268 kts | 206° |
| 2026-04-30 10:08 | -34.65297 | 150.73892 | 28495 ft | 273 kts | 208° |
| 2026-04-30 10:08 | -34.66958 | 150.72729 | 29070 ft | 278 kts | 208° |
| 2026-04-30 10:09 | -34.68640 | 150.71525 | 29636 ft | 283 kts | 209° |
| 2026-04-30 10:09 | -34.70348 | 150.70298 | 30226 ft | 288 kts | 208° |
| 2026-04-30 10:09 | -34.72082 | 150.69047 | 30765 ft | 292 kts | 209° |
| 2026-04-30 10:09 | -34.73841 | 150.67782 | 31275 ft | 296 kts | 208° |
| 2026-04-30 10:10 | -34.75622 | 150.66496 | 31783 ft | 300 kts | 209° |
| 2026-04-30 10:10 | -34.77424 | 150.65201 | 32305 ft | 303 kts | 209° |
| 2026-04-30 10:10 | -34.79245 | 150.63894 | 32824 ft | 305 kts | 209° |
| 2026-04-30 10:10 | -34.81058 | 150.62602 | 33355 ft | 307 kts | 209° |
| 2026-04-30 10:11 | -34.82910 | 150.61283 | 33884 ft | 309 kts | 208° |
| 2026-04-30 10:11 | -34.84769 | 150.59966 | 34422 ft | 310 kts | 209° |
| 2026-04-30 10:11 | -34.86634 | 150.58650 | 34898 ft | 310 kts | 209° |
| 2026-04-30 10:11 | -34.88502 | 150.57349 | 35336 ft | 309 kts | 209° |
| 2026-04-30 10:12 | -34.90376 | 150.56063 | 35812 ft | 308 kts | 209° |
| 2026-04-30 10:12 | -34.92247 | 150.54796 | 36274 ft | 306 kts | 209° |
| 2026-04-30 10:12 | -34.94109 | 150.53550 | 36744 ft | 304 kts | 209° |
| 2026-04-30 10:12 | -34.96005 | 150.52458 | 37216 ft | 299 kts | 199° |
| 2026-04-30 10:13 | -34.97988 | 150.51744 | 37702 ft | 295 kts | 195° |
| 2026-04-30 10:13 | -34.99943 | 150.51199 | 38154 ft | 290 kts | 194° |
| 2026-04-30 10:13 | -35.01911 | 150.50714 | 38502 ft | 288 kts | 193° |
| 2026-04-30 10:13 | -35.03893 | 150.50252 | 38590 ft | 294 kts | 193° |
| 2026-04-30 10:14 | -35.05923 | 150.49764 | 38648 ft | 300 kts | 194° |
| 2026-04-30 10:14 | -35.07973 | 150.49261 | 38918 ft | 300 kts | 194° |
| 2026-04-30 10:14 | -35.12011 | 150.48283 | 39459 ft | 296 kts | 194° |
| 2026-04-30 10:15 | -35.16145 | 150.47299 | 39520 ft | 308 kts | 194° |
| 2026-04-30 10:15 | -35.18242 | 150.46800 | 39773 ft | 305 kts | 194° |
| 2026-04-30 10:15 | -35.20311 | 150.46315 | 40048 ft | 301 kts | 194° |
| 2026-04-30 10:16 | -35.22381 | 150.45838 | 40149 ft | 305 kts | 194° |
| 2026-04-30 10:16 | -35.24492 | 150.45354 | 40153 ft | 312 kts | 194° |
| 2026-04-30 10:16 | -35.26632 | 150.44863 | 40266 ft | 314 kts | 194° |
| 2026-04-30 10:17 | -35.30928 | 150.43886 | 40445 ft | 322 kts | 194° |
| 2026-04-30 10:17 | -35.35443 | 150.42851 | 40463 ft | 339 kts | 194° |
| 2026-04-30 10:17 | -35.37792 | 150.42305 | 40464 ft | 348 kts | 194° |
| 2026-04-30 10:18 | -35.42680 | 150.41155 | 40470 ft | 368 kts | 194° |
| 2026-04-30 10:18 | -35.45229 | 150.40546 | 40466 ft | 379 kts | 194° |
| 2026-04-30 10:19 | -35.50548 | 150.39259 | 40466 ft | 401 kts | 194° |
| 2026-04-30 10:19 | -35.53326 | 150.38579 | 40460 ft | 412 kts | 194° |
| 2026-04-30 10:19 | -35.56139 | 150.37885 | 40462 ft | 424 kts | 194° |
| 2026-04-30 10:19 | -35.59068 | 150.37157 | 40458 ft | 436 kts | 194° |
| 2026-04-30 10:20 | -35.62076 | 150.36404 | 40450 ft | 447 kts | 194° |
| 2026-04-30 10:20 | -35.68334 | 150.34819 | 40447 ft | 471 kts | 194° |
| 2026-04-30 10:20 | -35.71587 | 150.33987 | 40449 ft | 483 kts | 194° |
| 2026-04-30 10:21 | -35.74909 | 150.33131 | 40444 ft | 495 kts | 194° |
| 2026-04-30 10:21 | -35.78321 | 150.32248 | 40440 ft | 505 kts | 194° |
| 2026-04-30 10:21 | -35.85210 | 150.30458 | 40430 ft | 506 kts | 194° |
| 2026-04-30 10:22 | -35.92104 | 150.28660 | 40434 ft | 506 kts | 194° |
| 2026-04-30 10:22 | -35.98942 | 150.26872 | 40431 ft | 506 kts | 194° |
| 2026-04-30 10:23 | -36.05831 | 150.25065 | 40429 ft | 506 kts | 194° |
| 2026-04-30 10:23 | -36.12718 | 150.23253 | 40424 ft | 506 kts | 194° |
| 2026-04-30 10:24 | -36.19600 | 150.21438 | 40423 ft | 505 kts | 194° |
| 2026-04-30 10:24 | -36.26476 | 150.19620 | 40423 ft | 505 kts | 194° |
| 2026-04-30 10:25 | -36.33340 | 150.17746 | 40426 ft | 504 kts | 195° |
| 2026-04-30 10:25 | -36.40117 | 150.15709 | 40422 ft | 505 kts | 196° |
| 2026-04-30 10:26 | -36.46931 | 150.13599 | 40424 ft | 505 kts | 196° |
| 2026-04-30 10:26 | -36.53740 | 150.11473 | 40410 ft | 505 kts | 196° |
| 2026-04-30 10:27 | -36.60554 | 150.09340 | 40404 ft | 505 kts | 196° |
| 2026-04-30 10:27 | -36.67358 | 150.07206 | 40418 ft | 505 kts | 197° |
| 2026-04-30 10:28 | -36.74174 | 150.05062 | 40417 ft | 505 kts | 197° |
| 2026-04-30 10:28 | -36.79823 | 150.03282 | 40410 ft | 505 kts | 197° |
| 2026-04-30 10:29 | -36.87735 | 150.00781 | 40418 ft | 505 kts | 197° |
| 2026-04-30 10:29 | -36.93394 | 149.98991 | 40414 ft | 505 kts | 197° |
| 2026-04-30 10:30 | -37.00210 | 149.96837 | 40411 ft | 505 kts | 197° |
| 2026-04-30 10:30 | -37.07016 | 149.94683 | 40406 ft | 505 kts | 197° |
| 2026-04-30 10:31 | -37.14929 | 149.92172 | 40406 ft | 505 kts | 197° |
| 2026-04-30 10:31 | -37.20633 | 149.90357 | 40404 ft | 505 kts | 197° |
| 2026-04-30 10:32 | -37.27396 | 149.88198 | 40400 ft | 505 kts | 197° |
| 2026-04-30 10:32 | -37.34215 | 149.86032 | 40407 ft | 506 kts | 197° |
| 2026-04-30 10:33 | -37.41038 | 149.83874 | 40402 ft | 506 kts | 197° |
| 2026-04-30 10:33 | -37.47865 | 149.81713 | 40408 ft | 506 kts | 197° |
| 2026-04-30 10:34 | -37.54584 | 149.79173 | 40404 ft | 503 kts | 204° |
| 2026-04-30 10:34 | -37.60827 | 149.75402 | 40401 ft | 500 kts | 212° |
| 2026-04-30 10:35 | -37.66624 | 149.70610 | 40385 ft | 497 kts | 219° |
| 2026-04-30 10:35 | -37.72011 | 149.65163 | 40393 ft | 496 kts | 223° |
| 2026-04-30 10:36 | -37.77563 | 149.59981 | 40388 ft | 499 kts | 213° |
| 2026-04-30 10:36 | -37.83690 | 149.55810 | 40347 ft | 502 kts | 209° |
| 2026-04-30 10:37 | -37.86787 | 149.53892 | 40219 ft | 502 kts | 208° |
| 2026-04-30 10:37 | -37.89939 | 149.51984 | 40116 ft | 502 kts | 208° |
| 2026-04-30 10:37 | -37.93101 | 149.50091 | 39992 ft | 502 kts | 208° |
| 2026-04-30 10:37 | -37.96262 | 149.48208 | 39880 ft | 502 kts | 208° |
| 2026-04-30 10:38 | -38.02593 | 149.44447 | 39666 ft | 502 kts | 208° |
| 2026-04-30 10:38 | -38.05760 | 149.42570 | 39564 ft | 502 kts | 208° |
| 2026-04-30 10:38 | -38.08922 | 149.40697 | 39575 ft | 501 kts | 208° |
| 2026-04-30 10:39 | -38.15240 | 149.36953 | 39574 ft | 501 kts | 208° |
| 2026-04-30 10:39 | -38.21531 | 149.33223 | 39571 ft | 502 kts | 208° |
| 2026-04-30 10:40 | -38.27862 | 149.29471 | 39569 ft | 502 kts | 208° |
| 2026-04-30 10:40 | -38.34193 | 149.25716 | 39577 ft | 502 kts | 208° |
| 2026-04-30 10:41 | -38.40537 | 149.21960 | 39574 ft | 503 kts | 208° |
| 2026-04-30 10:41 | -38.46880 | 149.18208 | 39572 ft | 503 kts | 208° |
| 2026-04-30 10:42 | -38.53230 | 149.14450 | 39575 ft | 503 kts | 208° |
| 2026-04-30 10:42 | -38.59532 | 149.10714 | 39575 ft | 503 kts | 208° |
| 2026-04-30 10:43 | -38.65871 | 149.06951 | 39575 ft | 503 kts | 208° |
| 2026-04-30 10:43 | -38.72228 | 149.03181 | 39571 ft | 505 kts | 208° |
| 2026-04-30 10:44 | -38.78607 | 148.99419 | 39571 ft | 505 kts | 208° |
| 2026-04-30 10:44 | -38.84946 | 148.95686 | 39583 ft | 505 kts | 208° |